createdAt,value
2022-08-18T00:00:27.418Z,78.54
2022-08-18T00:01:14.575Z,78.50
2022-08-18T00:02:02.657Z,78.57
2022-08-18T00:02:37.034Z,78.59
2022-08-18T00:03:54.041Z,78.52
2022-08-18T00:04:20.565Z,78.47
2022-08-18T00:05:00.516Z,78.41
2022-08-18T00:05:36.483Z,78.39
2022-08-18T00:06:13.576Z,78.38
2022-08-18T00:06:46.784Z,78.38
2022-08-18T00:07:26.529Z,78.34
2022-08-18T00:08:00.835Z,78.27
2022-08-18T00:08:38.409Z,78.38
2022-08-18T00:09:12.444Z,78.36
2022-08-18T00:09:46.696Z,78.44
2022-08-18T00:10:19.947Z,78.50
2022-08-18T00:10:53.093Z,78.48
2022-08-18T00:11:28.205Z,78.41
2022-08-18T00:12:23.509Z,78.35
2022-08-18T00:12:58.686Z,78.29
2022-08-18T00:13:35.585Z,78.31
2022-08-18T00:14:13.852Z,78.31
2022-08-18T00:14:56.251Z,78.26
2022-08-18T00:15:29.535Z,78.23
2022-08-18T00:16:02.920Z,78.24
2022-08-18T00:16:36.119Z,78.19
2022-08-18T00:17:09.650Z,78.11
2022-08-18T00:17:43.280Z,77.99
2022-08-18T00:18:17.002Z,77.96
2022-08-18T00:18:50.384Z,77.95
2022-08-18T00:19:47.065Z,77.95
2022-08-18T00:20:24.639Z,78.03
2022-08-18T00:20:57.809Z,78.02
2022-08-18T00:21:31.153Z,78.04
2022-08-18T00:22:04.550Z,78.04
2022-08-18T00:22:40.173Z,77.98
2022-08-18T00:23:13.873Z,77.90
2022-08-18T00:23:47.088Z,77.96
2022-08-18T00:24:20.243Z,77.91
2022-08-18T00:24:56.139Z,77.87
2022-08-18T00:25:29.353Z,77.80
2022-08-18T00:26:04.844Z,77.75
2022-08-18T00:26:38.202Z,77.67
2022-08-18T00:27:12.521Z,77.60
2022-08-18T00:27:46.748Z,77.65
2022-08-18T00:28:20.030Z,77.55
2022-08-18T00:28:57.316Z,77.56
2022-08-18T00:29:30.463Z,77.47
2022-08-18T00:30:06.272Z,77.39
2022-08-18T00:30:39.922Z,77.33
2022-08-18T00:31:13.220Z,77.13
2022-08-18T00:31:46.414Z,77.07
2022-08-18T00:32:25.602Z,76.95
2022-08-18T00:33:01.355Z,76.95
2022-08-18T00:33:34.574Z,76.92
2022-08-18T00:34:08.390Z,76.92
2022-08-18T00:34:42.051Z,76.90
2022-08-18T00:35:36.974Z,76.96
2022-08-18T00:36:11.752Z,77.00
2022-08-18T00:36:45.004Z,77.09
2022-08-18T00:37:18.589Z,77.05
2022-08-18T00:37:51.877Z,77.12
2022-08-18T00:38:25.693Z,77.21
2022-08-18T00:38:58.938Z,77.15
2022-08-18T00:39:35.078Z,77.24
2022-08-18T00:40:18.970Z,77.11
2022-08-18T00:40:55.363Z,77.08
2022-08-18T00:41:29.530Z,77.05
2022-08-18T00:42:27.583Z,77.10
2022-08-18T00:43:06.354Z,77.06
2022-08-18T00:43:49.074Z,77.03
2022-08-18T00:44:22.329Z,77.16
2022-08-18T00:44:56.839Z,77.19
2022-08-18T00:45:34.261Z,77.19
2022-08-18T00:46:20.129Z,77.11
2022-08-18T00:46:53.370Z,77.18
2022-08-18T00:47:41.886Z,77.21
2022-08-18T00:48:16.522Z,77.18
2022-08-18T00:48:53.164Z,77.20
2022-08-18T00:49:26.476Z,77.23
2022-08-18T00:49:59.714Z,77.20
2022-08-18T00:50:39.600Z,77.23
2022-08-18T00:51:19.655Z,77.26
2022-08-18T00:51:52.891Z,77.30
2022-08-18T00:52:26.643Z,77.34
2022-08-18T00:53:07.553Z,77.38
2022-08-18T00:53:48.009Z,77.39
2022-08-18T00:54:26.396Z,77.43
2022-08-18T00:55:02.772Z,77.47
2022-08-18T00:55:37.189Z,77.54
2022-08-18T00:56:39.787Z,77.51
2022-08-18T00:57:16.885Z,77.52
2022-08-18T00:57:52.786Z,77.57
2022-08-18T00:58:35.326Z,77.58
2022-08-18T00:59:31.814Z,77.56
2022-08-18T01:00:15.220Z,77.62
2022-08-18T01:00:51.823Z,77.57
2022-08-18T01:01:30.714Z,77.60
2022-08-18T01:02:13.592Z,77.55
2022-08-18T01:02:50.986Z,77.41
2022-08-18T01:03:25.411Z,77.28
2022-08-18T01:04:25.861Z,77.20
2022-08-18T01:05:11.174Z,77.12
2022-08-18T01:06:10.136Z,77.06
2022-08-18T01:06:52.051Z,76.97
2022-08-18T01:07:34.583Z,77.00
2022-08-18T01:08:12.389Z,76.92
2022-08-18T01:08:45.742Z,76.97
2022-08-18T01:09:20.422Z,77.01
2022-08-18T01:09:53.493Z,77.00
2022-08-18T01:10:26.862Z,77.04
2022-08-18T01:11:02.643Z,77.19
2022-08-18T01:11:38.502Z,77.15
2022-08-18T01:12:44.508Z,77.11
2022-08-18T01:13:06.131Z,77.15
2022-08-18T01:13:41.814Z,77.26
2022-08-18T01:14:16.369Z,77.27
2022-08-18T01:14:49.592Z,77.28
2022-08-18T01:15:29.051Z,77.33
2022-08-18T01:16:23.516Z,77.35
2022-08-18T01:17:15.818Z,77.37
2022-08-18T01:18:08.146Z,77.51
2022-08-18T01:18:59.773Z,77.59
2022-08-18T01:19:52.304Z,77.61
2022-08-18T01:20:56.738Z,77.66
2022-08-18T01:21:49.952Z,77.68
2022-08-18T01:22:36.172Z,77.74
2022-08-18T01:23:17.250Z,77.72
2022-08-18T01:23:54.124Z,77.76
2022-08-18T01:24:53.936Z,77.75
2022-08-18T01:25:46.174Z,77.72
2022-08-18T01:26:23.106Z,77.73
2022-08-18T01:26:56.373Z,77.81
2022-08-18T01:27:32.382Z,77.82
2022-08-18T01:28:06.497Z,77.79
2022-08-18T01:28:42.468Z,77.74
2022-08-18T01:29:18.769Z,77.75
2022-08-18T01:29:52.597Z,77.78
2022-08-18T01:30:26.263Z,77.72
2022-08-18T01:31:01.450Z,77.72
2022-08-18T01:31:42.010Z,77.60
2022-08-18T01:32:27.891Z,77.58
2022-08-18T01:33:01.007Z,77.66
2022-08-18T01:33:43.932Z,77.75
2022-08-18T01:34:17.153Z,77.78
2022-08-18T01:34:52.529Z,77.80
2022-08-18T01:35:27.454Z,77.82
2022-08-18T01:36:05.569Z,77.76
2022-08-18T01:36:41.060Z,77.77
2022-08-18T01:37:17.201Z,77.73
2022-08-18T01:37:50.501Z,77.74
2022-08-18T01:38:23.870Z,77.72
2022-08-18T01:38:57.790Z,77.70
2022-08-18T01:41:17.375Z,77.56
2022-08-18T01:41:25.256Z,77.68
2022-08-18T01:41:29.779Z,77.52
2022-08-18T01:42:05.075Z,77.37
2022-08-18T01:42:40.172Z,77.40
2022-08-18T01:43:14.690Z,77.28
2022-08-18T01:43:49.785Z,77.27
2022-08-18T01:44:23.034Z,77.28
2022-08-18T01:44:57.270Z,77.32
2022-08-18T01:45:33.685Z,77.24
2022-08-18T01:46:07.180Z,77.30
2022-08-18T01:46:42.221Z,77.27
2022-08-18T01:47:17.513Z,77.28
2022-08-18T01:47:50.899Z,77.38
2022-08-18T01:48:23.978Z,77.54
2022-08-18T01:48:58.813Z,77.53
2022-08-18T01:49:32.062Z,77.63
2022-08-18T01:50:06.718Z,77.74
2022-08-18T01:50:41.841Z,77.75
2022-08-18T01:51:15.648Z,77.86
2022-08-18T01:51:49.736Z,77.85
2022-08-18T01:52:22.960Z,77.93
2022-08-18T01:52:56.290Z,78.00
2022-08-18T01:53:29.658Z,78.09
2022-08-18T01:54:04.605Z,78.08
2022-08-18T01:54:37.860Z,77.96
2022-08-18T01:55:11.224Z,78.00
2022-08-18T01:55:48.015Z,78.06
2022-08-18T01:56:21.395Z,78.02
2022-08-18T01:56:55.169Z,78.11
2022-08-18T01:57:29.871Z,78.11
2022-08-18T01:58:04.106Z,78.07
2022-08-18T01:58:37.627Z,77.96
2022-08-18T01:59:14.414Z,77.98
2022-08-18T01:59:47.634Z,77.97
2022-08-18T02:00:21.974Z,78.05
2022-08-18T02:01:01.982Z,78.01
2022-08-18T02:01:45.280Z,77.96
2022-08-18T02:02:27.984Z,77.96
2022-08-18T02:03:02.839Z,78.00
2022-08-18T02:03:40.030Z,78.06
2022-08-18T02:04:34.614Z,78.11
2022-08-18T02:05:15.047Z,78.10
2022-08-18T02:05:51.038Z,78.15
2022-08-18T02:06:32.145Z,78.16
2022-08-18T02:07:11.915Z,78.18
2022-08-18T02:07:45.515Z,78.21
2022-08-18T02:08:18.912Z,78.31
2022-08-18T02:08:53.659Z,78.26
2022-08-18T02:09:28.462Z,78.28
2022-08-18T02:10:02.541Z,78.28
2022-08-18T02:10:35.852Z,78.34
2022-08-18T02:11:09.345Z,78.32
2022-08-18T02:11:42.528Z,78.32
2022-08-18T02:12:16.833Z,78.28
2022-08-18T02:12:50.116Z,78.22
2022-08-18T02:13:23.214Z,78.14
2022-08-18T02:13:56.388Z,78.04
2022-08-18T02:14:31.374Z,78.00
2022-08-18T02:15:06.105Z,77.90
2022-08-18T02:15:41.945Z,77.85
2022-08-18T02:16:17.110Z,77.79
2022-08-18T02:16:50.367Z,77.73
2022-08-18T02:17:24.081Z,77.68
2022-08-18T02:17:57.421Z,77.69
2022-08-18T02:18:47.494Z,77.70
2022-08-18T02:19:21.445Z,77.77
2022-08-18T02:19:55.490Z,77.63
2022-08-18T02:20:28.633Z,77.73
2022-08-18T02:21:14.240Z,77.73
2022-08-18T02:21:53.082Z,77.63
2022-08-18T02:22:26.258Z,77.68
2022-08-18T02:22:59.535Z,77.71
2022-08-18T02:23:32.797Z,77.75
2022-08-18T02:24:06.063Z,77.86
2022-08-18T02:24:40.354Z,77.77
2022-08-18T02:25:15.180Z,77.77
2022-08-18T02:25:48.614Z,77.72
2022-08-18T02:26:23.695Z,77.78
2022-08-18T02:26:57.514Z,77.74
2022-08-18T02:27:30.735Z,77.72
2022-08-18T02:28:05.742Z,77.81
2022-08-18T02:28:39.256Z,77.78
2022-08-18T02:29:13.133Z,77.76
2022-08-18T02:29:46.276Z,77.75
2022-08-18T02:30:19.671Z,77.80
2022-08-18T02:30:52.770Z,77.82
2022-08-18T02:31:26.727Z,77.78
2022-08-18T02:32:00.169Z,77.65
2022-08-18T02:32:33.695Z,77.71
2022-08-18T02:33:09.522Z,77.78
2022-08-18T02:33:51.599Z,77.78
2022-08-18T02:34:26.184Z,77.77
2022-08-18T02:34:59.596Z,77.82
2022-08-18T02:35:33.527Z,77.74
2022-08-18T02:36:07.574Z,77.68
2022-08-18T02:36:40.837Z,77.69
2022-08-18T02:37:15.548Z,77.59
2022-08-18T02:37:49.227Z,77.56
2022-08-18T02:38:22.435Z,77.54
2022-08-18T02:38:59.383Z,77.53
2022-08-18T02:39:36.020Z,77.49
2022-08-18T02:40:15.096Z,77.54
2022-08-18T02:40:55.914Z,77.49
2022-08-18T02:41:30.206Z,77.43
2022-08-18T02:42:07.520Z,77.41
2022-08-18T02:42:40.896Z,77.37
2022-08-18T02:43:14.258Z,77.28
2022-08-18T02:43:49.163Z,77.25
2022-08-18T02:44:22.566Z,77.16
2022-08-18T02:44:55.775Z,77.13
2022-08-18T02:45:29.579Z,77.12
2022-08-18T02:46:03.094Z,77.07
2022-08-18T02:46:37.037Z,77.01
2022-08-18T02:47:10.313Z,76.97
2022-08-18T02:47:45.219Z,76.88
2022-08-18T02:48:36.988Z,76.83
2022-08-18T02:49:10.426Z,76.83
2022-08-18T02:49:43.543Z,76.70
2022-08-18T02:50:16.978Z,76.68
2022-08-18T02:50:50.262Z,76.68
2022-08-18T02:51:23.587Z,76.66
2022-08-18T02:51:59.448Z,76.63
2022-08-18T02:52:35.172Z,76.65
2022-08-18T02:53:08.854Z,76.71
2022-08-18T02:53:46.248Z,76.72
2022-08-18T02:54:23.443Z,76.68
2022-08-18T02:54:56.605Z,76.71
2022-08-18T02:55:29.817Z,76.72
2022-08-18T02:56:40.263Z,76.67
2022-08-18T02:57:15.143Z,76.67
2022-08-18T02:57:49.499Z,76.67
2022-08-18T02:58:22.918Z,76.69
2022-08-18T02:59:06.560Z,76.61
2022-08-18T02:59:40.954Z,76.67
2022-08-18T03:00:18.797Z,76.65
2022-08-18T03:00:52.415Z,76.71
2022-08-18T03:01:32.764Z,76.76
2022-08-18T03:02:08.471Z,76.72
2022-08-18T03:02:45.680Z,76.82
2022-08-18T03:03:18.973Z,76.82
2022-08-18T03:03:52.987Z,76.85
2022-08-18T03:04:30.517Z,76.78
2022-08-18T03:05:04.879Z,76.82
2022-08-18T03:05:38.173Z,76.82
2022-08-18T03:06:11.776Z,76.77
2022-08-18T03:06:46.682Z,76.77
2022-08-18T03:07:20.132Z,76.76
2022-08-18T03:07:54.261Z,76.83
2022-08-18T03:08:27.578Z,76.82
2022-08-18T03:09:00.772Z,76.87
2022-08-18T03:09:34.895Z,76.86
2022-08-18T03:10:32.508Z,77.00
2022-08-18T03:11:02.545Z,77.10
2022-08-18T03:11:36.874Z,77.21
2022-08-18T03:12:11.079Z,77.30
2022-08-18T03:12:44.332Z,77.35
2022-08-18T03:13:17.570Z,77.45
2022-08-18T03:13:51.189Z,77.40
2022-08-18T03:14:25.010Z,77.49
2022-08-18T03:14:58.250Z,77.48
2022-08-18T03:15:32.340Z,77.47
2022-08-18T03:16:05.508Z,77.51
2022-08-18T03:16:45.653Z,77.47
2022-08-18T03:17:28.632Z,77.52
2022-08-18T03:18:02.471Z,77.55
2022-08-18T03:18:36.658Z,77.64
2022-08-18T03:19:10.054Z,77.62
2022-08-18T03:19:46.881Z,77.63
2022-08-18T03:20:30.029Z,77.64
2022-08-18T03:21:10.280Z,77.55
2022-08-18T03:21:46.592Z,77.50
2022-08-18T03:22:28.578Z,77.49
2022-08-18T03:23:05.823Z,77.56
2022-08-18T03:23:44.716Z,77.47
2022-08-18T03:24:35.311Z,77.45
2022-08-18T03:25:09.218Z,77.53
2022-08-18T03:25:49.828Z,77.57
2022-08-18T03:26:25.161Z,77.47
2022-08-18T03:26:58.627Z,77.52
2022-08-18T03:27:31.819Z,77.53
2022-08-18T03:28:05.403Z,77.51
2022-08-18T03:28:41.400Z,77.51
2022-08-18T03:29:14.844Z,77.57
2022-08-18T03:29:47.929Z,77.46
2022-08-18T03:30:22.268Z,77.44
2022-08-18T03:30:56.148Z,77.35
2022-08-18T03:31:31.766Z,77.29
2022-08-18T03:32:07.260Z,77.34
2022-08-18T03:32:40.491Z,77.32
2022-08-18T03:33:19.232Z,77.30
2022-08-18T03:33:53.679Z,77.34
2022-08-18T03:34:26.838Z,77.37
2022-08-18T03:35:00.069Z,77.29
2022-08-18T03:35:36.719Z,77.36
2022-08-18T03:36:19.206Z,77.41
2022-08-18T03:36:52.500Z,77.42
2022-08-18T03:37:25.804Z,77.45
2022-08-18T03:37:59.601Z,77.48
2022-08-18T03:38:33.377Z,77.55
2022-08-18T03:39:11.485Z,77.45
2022-08-18T03:39:44.668Z,77.53
2022-08-18T03:40:18.088Z,77.61
2022-08-18T03:40:52.941Z,77.58
2022-08-18T03:41:43.736Z,77.55
2022-08-18T03:42:21.690Z,77.54
2022-08-18T03:42:55.103Z,77.51
2022-08-18T03:43:50.221Z,77.54
2022-08-18T03:44:23.514Z,77.43
2022-08-18T03:44:56.528Z,77.46
2022-08-18T03:45:32.123Z,77.44
2022-08-18T03:46:09.801Z,77.46
2022-08-18T03:46:44.871Z,77.42
2022-08-18T03:47:18.411Z,77.42
2022-08-18T03:47:53.716Z,77.42
2022-08-18T03:48:27.159Z,77.36
2022-08-18T03:49:02.193Z,77.34
2022-08-18T03:49:35.653Z,77.27
2022-08-18T03:50:09.179Z,77.20
2022-08-18T03:50:48.565Z,77.28
2022-08-18T03:51:25.711Z,77.23
2022-08-18T03:52:01.262Z,77.26
2022-08-18T03:52:41.625Z,77.16
2022-08-18T03:53:15.499Z,77.17
2022-08-18T03:53:49.653Z,77.22
2022-08-18T03:54:23.399Z,77.24
2022-08-18T03:54:56.514Z,77.26
2022-08-18T03:55:29.705Z,77.22
2022-08-18T03:56:07.375Z,77.21
2022-08-18T03:56:42.511Z,77.21
2022-08-18T03:57:15.776Z,77.17
2022-08-18T03:57:49.056Z,77.17
2022-08-18T03:58:22.383Z,77.25
2022-08-18T03:58:58.798Z,77.34
2022-08-18T03:59:32.390Z,77.35
2022-08-18T04:00:06.665Z,77.38
2022-08-18T04:00:40.156Z,77.30
2022-08-18T04:01:26.309Z,77.36
2022-08-18T04:02:03.932Z,77.36
2022-08-18T04:02:37.112Z,77.46
2022-08-18T04:03:11.493Z,77.45
2022-08-18T04:03:47.762Z,77.55
2022-08-18T04:04:25.981Z,77.56
2022-08-18T04:04:59.142Z,77.54
2022-08-18T04:05:32.859Z,77.62
2022-08-18T04:06:08.661Z,77.64
2022-08-18T04:06:54.321Z,77.70
2022-08-18T04:07:27.562Z,77.67
2022-08-18T04:08:01.216Z,77.74
2022-08-18T04:08:34.860Z,77.77
2022-08-18T04:09:11.254Z,77.82
2022-08-18T04:09:45.696Z,77.89
2022-08-18T04:10:19.945Z,77.93
2022-08-18T04:10:53.122Z,77.99
2022-08-18T04:11:28.767Z,78.01
2022-08-18T04:12:16.682Z,78.03
2022-08-18T04:12:51.452Z,78.12
2022-08-18T04:13:24.757Z,78.15
2022-08-18T04:13:58.308Z,78.19
2022-08-18T04:14:32.835Z,78.28
2022-08-18T04:15:06.480Z,78.34
2022-08-18T04:15:39.942Z,78.44
2022-08-18T04:16:14.441Z,78.49
2022-08-18T04:16:49.528Z,78.56
2022-08-18T04:17:25.921Z,78.47
2022-08-18T04:18:03.934Z,78.55
2022-08-18T04:18:37.823Z,78.61
2022-08-18T04:19:13.917Z,78.65
2022-08-18T04:19:47.280Z,78.75
2022-08-18T04:20:20.535Z,78.88
2022-08-18T04:20:59.612Z,78.85
2022-08-18T04:21:35.100Z,78.97
2022-08-18T04:22:08.238Z,79.01
2022-08-18T04:22:42.275Z,79.14
2022-08-18T04:23:17.899Z,79.18
2022-08-18T04:23:51.179Z,79.23
2022-08-18T04:24:26.696Z,79.33
2022-08-18T04:25:01.665Z,79.37
2022-08-18T04:25:34.826Z,79.40
2022-08-18T04:26:09.519Z,79.47
2022-08-18T04:26:52.462Z,79.52
2022-08-18T04:27:25.688Z,79.63
2022-08-18T04:28:01.501Z,79.62
2022-08-18T04:28:35.891Z,79.69
2022-08-18T04:29:10.938Z,79.67
2022-08-18T04:29:44.080Z,79.67
2022-08-18T04:30:17.224Z,79.73
2022-08-18T04:30:50.459Z,79.77
2022-08-18T04:31:25.096Z,79.86
2022-08-18T04:32:04.260Z,79.97
2022-08-18T04:32:37.384Z,79.97
2022-08-18T04:33:10.695Z,80.00
2022-08-18T04:33:44.550Z,80.09
2022-08-18T04:34:20.807Z,80.12
2022-08-18T04:34:55.133Z,80.12
2022-08-18T04:35:31.548Z,80.26
2022-08-18T04:36:10.898Z,80.30
2022-08-18T04:36:44.744Z,80.38
2022-08-18T04:37:18.011Z,80.45
2022-08-18T04:37:51.669Z,80.44
2022-08-18T04:38:25.737Z,80.50
2022-08-18T04:38:59.427Z,80.54
2022-08-18T04:39:32.709Z,80.69
2022-08-18T04:40:07.790Z,80.80
2022-08-18T04:40:42.090Z,80.88
2022-08-18T04:41:15.336Z,80.89
2022-08-18T04:41:49.158Z,81.00
2022-08-18T04:42:22.444Z,81.10
2022-08-18T04:42:55.910Z,81.12
2022-08-18T04:43:29.496Z,81.20
2022-08-18T04:44:06.441Z,81.26
2022-08-18T04:44:39.697Z,81.38
2022-08-18T04:45:13.646Z,81.42
2022-08-18T04:45:47.416Z,81.44
2022-08-18T04:46:23.983Z,81.62
2022-08-18T04:46:57.901Z,81.56
2022-08-18T04:47:31.752Z,81.61
2022-08-18T04:48:04.984Z,81.68
2022-08-18T04:48:41.045Z,81.74
2022-08-18T04:49:15.405Z,81.79
2022-08-18T04:49:48.618Z,81.82
2022-08-18T04:50:24.843Z,81.81
2022-08-18T04:50:57.889Z,81.90
2022-08-18T04:52:22.498Z,81.93
2022-08-18T04:52:43.269Z,82.00
2022-08-18T04:53:35.085Z,82.03
2022-08-18T04:54:08.238Z,82.10
2022-08-18T04:54:41.383Z,82.16
2022-08-18T04:55:15.323Z,82.12
2022-08-18T04:55:54.064Z,82.19
2022-08-18T04:56:37.841Z,82.28
2022-08-18T04:57:17.358Z,82.36
2022-08-18T04:57:50.540Z,82.44
2022-08-18T04:58:24.745Z,82.43
2022-08-18T04:58:59.639Z,82.50
2022-08-18T04:59:32.950Z,82.53
2022-08-18T05:00:08.550Z,82.72
2022-08-18T05:00:43.942Z,82.74
2022-08-18T05:01:17.898Z,82.81
2022-08-18T05:01:51.260Z,82.89
2022-08-18T05:02:24.550Z,82.85
2022-08-18T05:02:57.778Z,82.87
2022-08-18T05:03:30.993Z,82.85
2022-08-18T05:04:04.804Z,82.91
2022-08-18T05:04:41.133Z,82.92
2022-08-18T05:05:14.427Z,82.92
2022-08-18T05:05:47.519Z,83.02
2022-08-18T05:06:25.467Z,83.05
2022-08-18T05:06:58.642Z,83.07
2022-08-18T05:07:32.873Z,83.19
2022-08-18T05:08:06.274Z,83.22
2022-08-18T05:08:39.716Z,83.28
2022-08-18T05:09:22.946Z,83.30
2022-08-18T05:09:56.852Z,83.36
2022-08-18T05:10:30.237Z,83.38
2022-08-18T05:11:04.478Z,83.51
2022-08-18T05:11:39.297Z,83.47
2022-08-18T05:12:14.517Z,83.57
2022-08-18T05:12:48.794Z,83.59
2022-08-18T05:13:22.119Z,83.60
2022-08-18T05:13:58.306Z,83.64
2022-08-18T05:14:31.861Z,83.70
2022-08-18T05:15:05.644Z,83.69
2022-08-18T05:15:59.706Z,83.78
2022-08-18T05:16:48.147Z,83.78
2022-08-18T05:17:26.965Z,83.81
2022-08-18T05:18:04.820Z,83.86
2022-08-18T05:18:41.535Z,83.93
2022-08-18T05:19:23.200Z,83.90
2022-08-18T05:19:57.197Z,83.92
2022-08-18T05:20:30.519Z,84.06
2022-08-18T05:21:03.904Z,84.10
2022-08-18T05:21:42.370Z,84.12
2022-08-18T05:22:18.528Z,84.17
2022-08-18T05:22:51.669Z,84.28
2022-08-18T05:23:25.063Z,84.37
2022-08-18T05:23:58.213Z,84.42
2022-08-18T05:24:37.778Z,84.46
2022-08-18T05:25:12.717Z,84.54
2022-08-18T05:25:46.060Z,84.57
2022-08-18T05:26:20.149Z,84.62
2022-08-18T05:26:55.543Z,84.81
2022-08-18T05:27:36.684Z,84.78
2022-08-18T05:28:10.246Z,84.88
2022-08-18T05:28:44.895Z,84.89
2022-08-18T05:29:19.669Z,84.90
2022-08-18T05:29:53.158Z,85.02
2022-08-18T05:30:26.597Z,85.01
2022-08-18T05:31:00.317Z,85.06
2022-08-18T05:31:34.333Z,85.11
2022-08-18T05:32:08.161Z,85.11
2022-08-18T05:32:48.367Z,85.15
2022-08-18T05:33:23.864Z,85.20
2022-08-18T05:33:57.989Z,85.29
2022-08-18T05:34:31.197Z,85.35
2022-08-18T05:35:10.500Z,85.38
2022-08-18T05:35:48.050Z,85.39
2022-08-18T05:36:48.726Z,85.50
2022-08-18T05:37:36.079Z,85.50
2022-08-18T05:38:38.426Z,85.53
2022-08-18T05:39:16.216Z,85.47
2022-08-18T05:39:58.702Z,85.56
2022-08-18T05:40:32.338Z,85.51
2022-08-18T05:41:14.477Z,85.53
2022-08-18T05:41:52.251Z,85.57
2022-08-18T05:42:29.075Z,85.68
2022-08-18T05:43:04.227Z,85.73
2022-08-18T05:43:40.697Z,85.76
2022-08-18T05:44:28.655Z,85.80
2022-08-18T05:45:07.886Z,85.88
2022-08-18T05:45:42.209Z,85.88
2022-08-18T05:46:16.779Z,85.90
2022-08-18T05:47:00.430Z,85.96
2022-08-18T05:47:33.723Z,85.88
2022-08-18T05:48:07.035Z,85.87
2022-08-18T05:48:43.659Z,85.88
2022-08-18T05:49:18.283Z,85.81
2022-08-18T05:49:53.188Z,85.84
2022-08-18T05:50:27.949Z,85.74
2022-08-18T05:51:08.938Z,85.86
2022-08-18T05:51:48.928Z,85.78
2022-08-18T05:52:34.343Z,85.77
2022-08-18T05:53:14.757Z,85.84
2022-08-18T05:54:07.595Z,85.70
2022-08-18T05:55:08.518Z,85.82
2022-08-18T05:56:18.530Z,85.71
2022-08-18T05:56:55.647Z,85.60
2022-08-18T05:57:34.276Z,85.70
2022-08-18T05:58:24.070Z,85.60
2022-08-18T05:59:08.034Z,85.57
2022-08-18T05:59:43.535Z,85.52
2022-08-18T06:00:20.168Z,85.49
2022-08-18T06:00:59.745Z,85.51
2022-08-18T06:01:41.769Z,85.58
2022-08-18T06:02:35.643Z,85.47
2022-08-18T06:03:45.008Z,85.46
2022-08-18T06:04:31.504Z,85.50
2022-08-18T06:05:13.996Z,85.45
2022-08-18T06:05:58.744Z,85.48
2022-08-18T06:06:34.261Z,85.38
2022-08-18T06:07:13.099Z,85.32
2022-08-18T06:07:57.507Z,85.26
2022-08-18T06:08:40.948Z,85.29
2022-08-18T06:09:22.672Z,85.15
2022-08-18T06:09:55.801Z,85.11
2022-08-18T06:10:29.417Z,85.18
2022-08-18T06:11:02.839Z,85.19
2022-08-18T06:11:36.231Z,85.00
2022-08-18T06:12:47.173Z,85.13
2022-08-18T06:13:22.042Z,84.97
2022-08-18T06:13:59.765Z,84.91
2022-08-18T06:14:33.330Z,84.96
2022-08-18T06:15:20.567Z,84.82
2022-08-18T06:15:59.908Z,84.88
2022-08-18T06:16:51.190Z,84.78
2022-08-18T06:17:48.374Z,84.68
2022-08-18T06:18:52.469Z,84.81
2022-08-18T06:19:40.476Z,84.67
2022-08-18T06:20:19.897Z,84.84
2022-08-18T06:21:11.983Z,84.73
2022-08-18T06:21:56.484Z,84.75
2022-08-18T06:23:13.314Z,84.85
2022-08-18T06:23:51.960Z,84.79
2022-08-18T06:24:31.968Z,84.68
2022-08-18T06:25:36.305Z,84.73
2022-08-18T06:26:44.267Z,84.65
2022-08-18T06:27:17.437Z,84.51
2022-08-18T06:28:08.067Z,84.42
2022-08-18T06:28:56.425Z,84.41
2022-08-18T06:30:13.156Z,84.30
2022-08-18T06:31:18.779Z,84.07
2022-08-18T06:32:24.239Z,84.14
2022-08-18T06:33:03.766Z,84.01
2022-08-18T06:33:46.094Z,83.87
2022-08-18T06:34:40.921Z,83.76
2022-08-18T06:35:37.929Z,83.63
2022-08-18T06:36:17.146Z,83.61
2022-08-18T06:36:59.200Z,83.60
2022-08-18T06:37:59.558Z,83.40
2022-08-18T06:38:50.923Z,83.45
2022-08-18T06:39:27.608Z,83.38
2022-08-18T06:40:02.515Z,83.29
2022-08-18T06:40:37.103Z,83.15
2022-08-18T06:41:37.977Z,83.03
2022-08-18T06:42:06.487Z,82.92
2022-08-18T06:42:40.656Z,82.76
2022-08-18T06:43:17.628Z,82.53
2022-08-18T06:44:00.575Z,82.44
2022-08-18T06:44:43.486Z,82.25
2022-08-18T06:45:20.066Z,82.19
2022-08-18T06:45:54.163Z,82.07
2022-08-18T06:47:04.528Z,81.93
2022-08-18T06:47:54.429Z,81.83
2022-08-18T06:48:38.050Z,81.65
2022-08-18T06:49:48.776Z,81.66
2022-08-18T06:50:30.923Z,81.40
2022-08-18T06:51:07.640Z,81.34
2022-08-18T06:51:41.410Z,81.12
2022-08-18T06:52:32.634Z,80.82
2022-08-18T06:53:08.360Z,80.55
2022-08-18T06:54:04.397Z,80.11
2022-08-18T06:54:47.734Z,79.99
2022-08-18T06:55:38.210Z,79.88
2022-08-18T06:56:35.227Z,79.99
2022-08-18T06:57:39.900Z,79.98
2022-08-18T06:58:15.709Z,79.91
2022-08-18T06:58:52.679Z,79.74
2022-08-18T06:59:33.881Z,79.72
2022-08-18T07:00:29.413Z,79.54
2022-08-18T07:01:08.275Z,79.25
2022-08-18T07:01:42.439Z,79.06
2022-08-18T07:02:37.913Z,79.03
2022-08-18T07:03:21.827Z,78.92
2022-08-18T07:03:57.087Z,78.77
2022-08-18T07:04:59.906Z,78.66
2022-08-18T07:05:35.338Z,78.53
2022-08-18T07:06:23.767Z,78.59
2022-08-18T07:06:57.076Z,78.59
2022-08-18T07:07:39.557Z,78.52
2022-08-18T07:08:18.735Z,78.49
2022-08-18T07:09:15.928Z,78.44
2022-08-18T07:09:49.257Z,78.30
2022-08-18T07:10:22.311Z,78.38
2022-08-18T07:10:55.509Z,78.31
2022-08-18T07:11:34.204Z,78.23
2022-08-18T07:12:11.218Z,78.16
2022-08-18T07:12:44.633Z,78.33
2022-08-18T07:13:28.363Z,78.29
2022-08-18T07:14:23.167Z,78.22
2022-08-18T07:15:00.698Z,78.21
2022-08-18T07:15:33.894Z,78.09
2022-08-18T07:16:54.452Z,77.96
2022-08-18T07:17:42.125Z,77.80
2022-08-18T07:18:26.054Z,77.77
2022-08-18T07:19:15.939Z,77.64
2022-08-18T07:20:01.869Z,77.50
2022-08-18T07:20:47.555Z,77.48
2022-08-18T07:21:29.019Z,77.28
2022-08-18T07:22:07.058Z,77.22
2022-08-18T07:23:08.089Z,77.15
2022-08-18T07:23:41.714Z,77.11
2022-08-18T07:24:33.052Z,77.08
2022-08-18T07:25:06.489Z,77.09
2022-08-18T07:25:45.925Z,76.93
2022-08-18T07:26:19.626Z,76.82
2022-08-18T07:27:09.128Z,76.73
2022-08-18T07:27:50.465Z,76.56
2022-08-18T07:28:38.645Z,76.58
2022-08-18T07:29:16.411Z,76.50
2022-08-18T07:30:06.203Z,76.31
2022-08-18T07:30:47.066Z,76.11
2022-08-18T07:31:48.548Z,75.91
2022-08-18T07:32:23.491Z,75.73
2022-08-18T07:33:15.672Z,75.59
2022-08-18T07:34:21.158Z,75.42
2022-08-18T07:34:58.669Z,75.29
2022-08-18T07:35:49.736Z,75.16
2022-08-18T07:36:27.464Z,75.01
2022-08-18T07:37:19.267Z,74.88
2022-08-18T07:37:57.280Z,75.06
2022-08-18T07:38:44.294Z,74.98
2022-08-18T07:39:26.841Z,74.92
2022-08-18T07:40:13.378Z,74.80
2022-08-18T07:41:07.022Z,74.79
2022-08-18T07:41:57.854Z,74.67
2022-08-18T07:43:02.288Z,74.57
2022-08-18T07:43:53.896Z,74.45
2022-08-18T07:44:40.632Z,74.35
2022-08-18T07:45:31.921Z,74.42
2022-08-18T07:46:18.003Z,74.28
2022-08-18T07:46:54.082Z,74.09
2022-08-18T07:47:38.787Z,74.19
2022-08-18T07:48:38.205Z,74.14
2022-08-18T07:49:22.307Z,74.11
2022-08-18T07:50:23.067Z,74.15
2022-08-18T07:51:19.295Z,74.02
2022-08-18T07:52:00.088Z,74.06
2022-08-18T07:53:06.958Z,73.79
2022-08-18T07:53:57.892Z,73.73
2022-08-18T07:55:03.484Z,73.60
2022-08-18T07:55:36.901Z,73.56
2022-08-18T07:56:32.892Z,73.50
2022-08-18T07:57:20.286Z,73.31
2022-08-18T07:58:29.671Z,73.10
2022-08-18T07:59:23.318Z,72.89
2022-08-18T08:00:35.424Z,72.79
2022-08-18T08:01:33.660Z,72.69
2022-08-18T08:02:39.978Z,72.58
2022-08-18T08:03:19.098Z,72.48
2022-08-18T08:03:59.824Z,72.27
2022-08-18T08:05:06.916Z,72.22
2022-08-18T08:05:49.080Z,72.09
2022-08-18T08:06:39.733Z,71.88
2022-08-18T08:07:25.580Z,71.82
2022-08-18T08:08:15.450Z,71.61
2022-08-18T08:09:30.170Z,71.34
2022-08-18T08:10:28.271Z,71.35
2022-08-18T08:11:32.001Z,71.09
2022-08-18T08:12:14.167Z,71.02
2022-08-18T08:12:51.631Z,70.96
2022-08-18T08:13:54.629Z,70.82
2022-08-18T08:14:44.260Z,70.76
2022-08-18T08:15:36.628Z,70.49
2022-08-18T08:16:46.093Z,70.34
2022-08-18T08:17:25.360Z,70.28
2022-08-18T08:18:22.444Z,69.98
2022-08-18T08:19:56.343Z,69.87
2022-08-18T08:20:32.784Z,69.61
2022-08-18T08:21:14.994Z,69.52
2022-08-18T08:22:13.105Z,69.35
2022-08-18T08:23:07.971Z,69.26
2022-08-18T08:23:56.017Z,68.91
2022-08-18T08:24:41.785Z,68.85
2022-08-18T08:25:42.636Z,68.72
2022-08-18T08:26:35.346Z,68.81
2022-08-18T08:27:20.411Z,68.81
2022-08-18T08:28:23.482Z,68.73
2022-08-18T08:29:34.623Z,68.73
2022-08-18T08:30:20.319Z,68.56
2022-08-18T08:31:33.060Z,68.53